createdAt,value
2018-04-07T00:00:50.241Z,3.30
2018-04-07T00:03:17.457Z,2.70
2018-04-07T00:05:44.571Z,2.80
2018-04-07T00:08:11.244Z,2.93
2018-04-07T00:10:37.629Z,3.47
2018-04-07T00:13:06.182Z,3.10
2018-04-07T00:15:33.453Z,3.00
2018-04-07T00:18:01.774Z,2.87
2018-04-07T00:20:28.277Z,2.80
2018-04-07T00:22:55.538Z,3.30
2018-04-07T00:25:22.736Z,2.53
2018-04-07T00:27:49.948Z,2.93
2018-04-07T00:30:18.128Z,3.30
2018-04-07T00:32:45.791Z,3.37
2018-04-07T00:35:12.349Z,2.70
2018-04-07T00:37:39.815Z,3.67
2018-04-07T00:40:06.534Z,2.67
2018-04-07T00:42:33.094Z,2.43
2018-04-07T00:44:59.980Z,2.90
2018-04-07T00:47:26.412Z,3.60
2018-04-07T00:49:53.326Z,3.07
2018-04-07T00:52:20.471Z,3.87
2018-04-07T00:54:48.407Z,2.70
2018-04-07T00:57:14.804Z,3.67
2018-04-07T00:59:41.191Z,3.70
2018-04-07T01:02:07.630Z,3.17
2018-04-07T01:04:34.043Z,3.30
2018-04-07T01:07:02.029Z,3.43
2018-04-07T01:09:29.116Z,3.63
2018-04-07T01:11:56.291Z,3.13
2018-04-07T01:14:23.779Z,2.90
2018-04-07T01:16:50.940Z,4.00
2018-04-07T01:19:17.325Z,3.37
2018-04-07T01:21:43.695Z,3.40
2018-04-07T01:24:10.030Z,3.20
2018-04-07T01:26:36.411Z,3.00
2018-04-07T01:29:03.204Z,3.00
2018-04-07T01:31:29.634Z,3.93
2018-04-07T01:33:55.989Z,3.30
2018-04-07T01:36:22.807Z,4.00
2018-04-07T01:38:49.205Z,3.03
2018-04-07T01:41:16.372Z,3.40
2018-04-07T01:43:43.128Z,3.90
2018-04-07T01:46:09.536Z,3.17
2018-04-07T01:48:35.933Z,3.90
2018-04-07T01:51:03.870Z,3.70
2018-04-07T01:53:30.604Z,3.80
2018-04-07T01:55:57.790Z,3.17
2018-04-07T01:58:24.148Z,4.10
2018-04-07T02:00:51.276Z,3.60
2018-04-07T02:03:17.644Z,3.63
2018-04-07T02:05:44.088Z,3.57
2018-04-07T02:08:10.502Z,3.73
2018-04-07T02:10:38.541Z,4.30
2018-04-07T02:13:04.895Z,3.23
2018-04-07T02:15:31.248Z,3.63
2018-04-07T02:17:57.615Z,3.40
2018-04-07T02:20:23.947Z,3.77
2018-04-07T02:22:52.068Z,4.20
2018-04-07T02:25:18.469Z,4.27
2018-04-07T02:27:44.898Z,3.20
2018-04-07T02:30:11.270Z,4.50
2018-04-07T02:32:37.803Z,3.77
2018-04-07T02:35:04.213Z,4.10
2018-04-07T02:37:31.328Z,3.80
2018-04-07T02:39:58.459Z,3.47
2018-04-07T02:42:24.880Z,4.00
2018-04-07T02:44:51.290Z,4.17
2018-04-07T02:47:17.696Z,3.60
2018-04-07T02:49:45.844Z,3.87
2018-04-07T02:52:12.355Z,3.20
2018-04-07T02:54:38.794Z,3.90
2018-04-07T02:57:05.566Z,3.90
2018-04-07T02:59:32.317Z,4.47
2018-04-07T03:01:58.656Z,4.80
2018-04-07T03:04:25.112Z,4.63
2018-04-07T03:06:51.533Z,3.83
2018-04-07T03:09:19.338Z,3.90
2018-04-07T03:11:45.715Z,4.37
2018-04-07T03:14:12.803Z,4.00
2018-04-07T03:16:39.270Z,4.30
2018-04-07T03:19:05.751Z,4.03
2018-04-07T03:21:32.180Z,4.47
2018-04-07T03:23:59.740Z,4.30
2018-04-07T03:26:26.642Z,5.03
2018-04-07T03:28:53.057Z,4.50
2018-04-07T03:31:19.439Z,4.23
2018-04-07T03:33:45.883Z,4.80
2018-04-07T03:36:12.317Z,4.73
2018-04-07T03:38:39.460Z,5.70
2018-04-07T03:41:06.961Z,4.57
2018-04-07T03:43:34.443Z,4.63
2018-04-07T03:46:00.882Z,4.40
2018-04-07T03:48:27.279Z,5.37
2018-04-07T03:50:53.624Z,5.27
2018-04-07T03:53:20.732Z,4.80
2018-04-07T03:55:47.199Z,4.43
2018-04-07T03:58:13.625Z,4.30
2018-04-07T04:00:40.057Z,4.70
2018-04-07T04:03:06.852Z,5.03
2018-04-07T04:05:33.298Z,5.20
2018-04-07T04:08:03.921Z,5.27
2018-04-07T04:10:30.769Z,5.00
2018-04-07T04:15:31.140Z,6.23
2018-04-07T04:17:58.344Z,4.83
2018-04-07T04:20:24.685Z,4.40
2018-04-07T04:22:51.862Z,4.60
2018-04-07T04:25:18.953Z,4.70
2018-04-07T04:27:46.105Z,5.60
2018-04-07T04:30:12.547Z,5.00
2018-04-07T04:32:39.660Z,5.10
2018-04-07T04:35:06.205Z,5.60
2018-04-07T04:37:34.330Z,5.10
2018-04-07T04:40:00.657Z,4.97
2018-04-07T04:42:27.666Z,5.80
2018-04-07T04:44:54.195Z,5.77
2018-04-07T04:47:20.514Z,4.83
2018-04-07T04:49:46.977Z,4.50
2018-04-07T04:52:13.395Z,5.07
2018-04-07T04:54:39.841Z,4.70
2018-04-07T04:57:06.259Z,5.30
2018-04-07T04:59:32.717Z,4.90
2018-04-07T05:01:59.187Z,4.57
2018-04-07T05:04:25.993Z,4.90
2018-04-07T05:06:52.437Z,5.63
2018-04-07T05:09:19.136Z,5.80
2018-04-07T05:11:45.551Z,5.03
2018-04-07T05:14:11.939Z,5.87
2018-04-07T05:16:38.409Z,5.07
2018-04-07T05:19:05.484Z,5.70
2018-04-07T05:21:33.387Z,5.10
2018-04-07T05:23:59.830Z,4.90
2018-04-07T05:26:26.271Z,4.50
2018-04-07T05:28:52.654Z,5.43
2018-04-07T05:31:20.058Z,4.77
2018-04-07T05:33:46.556Z,4.80
2018-04-07T05:36:14.420Z,4.60
2018-04-07T05:38:41.585Z,5.30
2018-04-07T05:41:08.721Z,4.93
2018-04-07T05:43:35.165Z,4.87
2018-04-07T05:46:02.336Z,4.33
2018-04-07T05:48:29.324Z,4.57
2018-04-07T05:50:55.797Z,4.43
2018-04-07T05:53:22.924Z,5.30
2018-04-07T05:55:49.291Z,3.90
2018-04-07T05:58:15.674Z,5.30
2018-04-07T06:00:44.562Z,5.40
2018-04-07T06:03:11.696Z,3.70
2018-04-07T06:05:38.981Z,4.23
2018-04-07T06:08:05.353Z,5.03
2018-04-07T06:10:31.786Z,3.80
2018-04-07T06:12:58.256Z,4.70
2018-04-07T06:15:25.390Z,3.97
2018-04-07T06:17:52.550Z,4.80
2018-04-07T06:20:19.737Z,4.30
2018-04-07T06:22:46.068Z,4.33
2018-04-07T06:25:12.886Z,3.80
2018-04-07T06:27:39.964Z,5.10
2018-04-07T06:30:06.327Z,3.80
2018-04-07T06:32:32.732Z,4.93
2018-04-07T06:34:59.471Z,5.00
2018-04-07T06:37:25.884Z,4.37
2018-04-07T06:39:53.939Z,4.03
2018-04-07T06:42:20.384Z,4.90
2018-04-07T06:44:51.026Z,5.07
2018-04-07T06:47:18.477Z,4.30
2018-04-07T06:49:45.009Z,4.30
2018-04-07T06:52:11.528Z,4.07
2018-04-07T06:54:39.641Z,3.87
2018-04-07T06:57:06.254Z,3.67
2018-04-07T06:59:33.417Z,4.13
2018-04-07T07:02:00.257Z,3.90
2018-04-07T07:04:26.668Z,4.03
2018-04-07T07:06:53.045Z,3.63
2018-04-07T07:09:21.163Z,4.60
2018-04-07T07:11:47.821Z,3.87
2018-04-07T07:14:15.486Z,4.10
2018-04-07T07:16:41.955Z,4.50
2018-04-07T07:19:08.448Z,4.27
2018-04-07T07:21:35.293Z,3.70
2018-04-07T07:24:02.099Z,3.87
2018-04-07T07:26:30.581Z,5.13
2018-04-07T07:28:57.354Z,3.83
2018-04-07T07:31:24.306Z,3.77
2018-04-07T07:33:51.628Z,4.20
2018-04-07T07:36:18.724Z,3.67
2018-04-07T07:38:46.198Z,3.83
2018-04-07T07:41:13.161Z,4.90
2018-04-07T07:43:39.880Z,3.97
2018-04-07T07:46:06.401Z,4.20
2018-04-07T07:48:32.866Z,3.90
2018-04-07T07:51:00.292Z,3.63
2018-04-07T07:53:26.797Z,4.83
2018-04-07T07:55:53.260Z,2.90
2018-04-07T07:58:20.752Z,3.73
2018-04-07T08:00:47.840Z,4.30
2018-04-07T08:03:15.988Z,3.67
2018-04-07T08:05:42.384Z,4.57
2018-04-07T08:08:09.273Z,4.03
2018-04-07T08:10:36.193Z,4.30
2018-04-07T08:13:02.665Z,3.80
2018-04-07T08:15:29.488Z,3.90
2018-04-07T08:17:55.930Z,4.03
2018-04-07T08:20:22.614Z,4.40
2018-04-07T08:22:49.114Z,4.57
2018-04-07T08:25:15.462Z,3.70
2018-04-07T08:27:42.549Z,3.93
2018-04-07T08:30:10.655Z,4.40
2018-04-07T08:32:37.819Z,3.60
2018-04-07T08:35:05.986Z,4.20
2018-04-07T08:37:34.440Z,4.23
2018-04-07T08:40:01.350Z,3.37
2018-04-07T08:42:28.802Z,3.60
2018-04-07T08:44:55.303Z,3.57
2018-04-07T08:47:22.685Z,4.00
2018-04-07T08:49:49.966Z,3.50
2018-04-07T08:52:18.744Z,3.20
2018-04-07T08:54:45.085Z,4.30
2018-04-07T08:57:11.905Z,3.83
2018-04-07T08:59:40.180Z,3.20
2018-04-07T09:02:06.958Z,2.93
2018-04-07T09:04:33.304Z,4.30
2018-04-07T09:06:59.765Z,4.10
2018-04-07T09:09:26.173Z,3.93
2018-04-07T09:11:53.337Z,4.10
2018-04-07T09:14:21.506Z,3.93
2018-04-07T09:16:47.959Z,4.27
2018-04-07T09:19:14.533Z,4.07
2018-04-07T09:21:42.159Z,4.57
2018-04-07T09:24:08.894Z,4.17
2018-04-07T09:26:35.357Z,4.27
2018-04-07T09:29:03.296Z,4.47
2018-04-07T09:31:29.925Z,3.83
2018-04-07T09:33:56.622Z,4.07
2018-04-07T09:36:23.219Z,5.30
2018-04-07T09:38:49.721Z,4.20
2018-04-07T09:41:16.572Z,4.30
2018-04-07T09:43:44.028Z,3.80
2018-04-07T09:46:12.153Z,4.00
2018-04-07T09:48:38.636Z,4.10
2018-04-07T09:51:05.452Z,4.40
2018-04-07T09:53:32.747Z,3.43
2018-04-07T09:56:00.853Z,4.40
2018-04-07T09:58:28.008Z,3.70
2018-04-07T10:00:55.013Z,3.27
2018-04-07T10:03:21.875Z,3.80
2018-04-07T10:05:49.276Z,4.37
2018-04-07T10:08:15.860Z,4.20
2018-04-07T10:10:42.342Z,3.33
2018-04-07T10:13:08.787Z,3.93
2018-04-07T10:15:35.519Z,3.80
2018-04-07T10:18:03.207Z,3.47
2018-04-07T10:20:30.122Z,3.50
2018-04-07T10:22:57.214Z,3.87
2018-04-07T10:25:24.146Z,3.97
2018-04-07T10:27:52.257Z,3.73
2018-04-07T10:30:18.800Z,3.70
2018-04-07T10:32:45.319Z,3.57
2018-04-07T10:35:17.709Z,3.50
2018-04-07T10:37:45.155Z,4.30
2018-04-07T10:40:11.649Z,3.70
2018-04-07T10:42:38.497Z,3.87
2018-04-07T10:45:13.036Z,3.10
2018-04-07T10:47:40.215Z,4.73
2018-04-07T10:50:06.583Z,3.83
2018-04-07T10:52:34.799Z,4.03
2018-04-07T10:55:01.624Z,5.10
2018-04-07T10:57:28.060Z,3.93
2018-04-07T10:59:55.985Z,4.17
2018-04-07T11:02:23.839Z,4.40
2018-04-07T11:04:51.013Z,3.80
2018-04-07T11:07:18.355Z,4.70
2018-04-07T11:09:45.217Z,4.00
2018-04-07T11:12:13.160Z,4.20
2018-04-07T11:14:39.748Z,4.40
2018-04-07T11:17:06.342Z,4.10
2018-04-07T11:19:34.948Z,5.03
2018-04-07T11:22:01.505Z,4.63
2018-04-07T11:24:29.461Z,5.17
2018-04-07T11:26:56.196Z,4.43
2018-04-07T11:29:22.852Z,4.13
2018-04-07T11:31:50.501Z,4.30
2018-04-07T11:34:19.692Z,4.50
2018-04-07T11:36:46.920Z,3.80
2018-04-07T11:39:14.155Z,4.20
2018-04-07T11:41:40.789Z,4.40
2018-04-07T11:44:07.684Z,4.40
2018-04-07T11:46:34.906Z,4.10
2018-04-07T11:49:01.432Z,4.80
2018-04-07T11:51:28.067Z,4.63
2018-04-07T11:53:55.726Z,3.87
2018-04-07T11:56:22.477Z,5.00
2018-04-07T11:58:48.992Z,4.50
2018-04-07T12:01:16.843Z,4.50
2018-04-07T12:03:43.342Z,4.83
2018-04-07T12:06:10.296Z,4.17
2018-04-07T12:08:37.514Z,4.87
2018-04-07T12:11:04.311Z,4.60
2018-04-07T12:13:32.048Z,4.10
2018-04-07T12:15:59.136Z,4.00
2018-04-07T12:18:25.685Z,5.00
2018-04-07T12:20:52.435Z,5.00
2018-04-07T12:23:19.622Z,4.97
2018-04-07T12:25:47.682Z,4.43
2018-04-07T12:28:15.859Z,4.30
2018-04-07T12:30:49.495Z,4.40
2018-04-07T12:33:16.924Z,4.60
2018-04-07T12:35:44.290Z,4.67
2018-04-07T12:38:12.277Z,4.13
2018-04-07T12:40:39.002Z,4.10
2018-04-07T12:43:07.628Z,5.37
2018-04-07T12:45:34.170Z,3.77
2018-04-07T12:48:01.005Z,4.53
2018-04-07T12:50:29.270Z,4.60
2018-04-07T12:52:57.557Z,4.40
2018-04-07T12:55:24.389Z,5.10
2018-04-07T12:57:51.419Z,4.30
2018-04-07T13:00:19.520Z,4.10
2018-04-07T13:02:46.193Z,3.97
2018-04-07T13:05:14.274Z,4.70
2018-04-07T13:07:41.422Z,4.33
2018-04-07T13:10:08.016Z,4.90
2018-04-07T13:12:35.701Z,4.60
2018-04-07T13:15:04.528Z,5.07
2018-04-07T13:17:32.825Z,4.90
2018-04-07T13:20:00.196Z,5.37
2018-04-07T13:22:27.889Z,4.80
2018-04-07T13:24:56.362Z,4.30
2018-04-07T13:27:23.064Z,4.40
2018-04-07T13:29:51.456Z,4.50
2018-04-07T13:32:19.669Z,4.23
2018-04-07T13:34:48.101Z,4.57
2018-04-07T13:37:17.886Z,5.00
2018-04-07T13:39:44.625Z,4.47
2018-04-07T13:42:11.494Z,4.33
2018-04-07T13:44:40.179Z,6.20
2018-04-07T13:49:42.350Z,5.07
2018-04-07T13:52:16.503Z,4.70
2018-04-07T13:54:47.650Z,4.90
2018-04-07T13:57:15.522Z,4.83
2018-04-07T13:59:45.011Z,4.33
2018-04-07T14:11:25.043Z,4.97
2018-04-07T14:13:54.194Z,4.83
2018-04-07T14:16:22.321Z,5.43
2018-04-07T14:54:59.396Z,4.90
2018-04-07T14:57:38.520Z,5.60
2018-04-07T15:00:18.747Z,5.87
2018-04-07T15:03:01.195Z,5.33
2018-04-07T16:01:30.127Z,5.90
2018-04-07T16:07:06.402Z,5.53
2018-04-07T16:09:34.574Z,5.67
2018-04-07T16:12:09.016Z,5.00
2018-04-07T16:14:36.936Z,5.70
2018-04-07T16:17:06.635Z,5.60
2018-04-07T16:19:34.032Z,4.60
2018-04-07T16:24:37.415Z,4.47
2018-04-07T16:27:06.414Z,4.90
2018-04-07T16:29:35.560Z,6.17
2018-04-07T16:32:02.871Z,5.93
2018-04-07T16:34:31.172Z,6.40
2018-04-07T16:37:00.425Z,5.93
2018-04-07T16:39:28.892Z,6.03
2018-04-07T16:41:57.047Z,6.67
2018-04-07T16:44:31.049Z,6.20
2018-04-07T16:47:01.767Z,6.10
2018-04-07T16:49:30.069Z,6.73
2018-04-07T16:51:58.447Z,7.70
2018-04-07T16:54:28.318Z,6.73
2018-04-07T16:56:55.018Z,6.40
2018-04-07T16:59:23.386Z,7.90
2018-04-07T17:01:51.891Z,8.67
2018-04-07T17:04:20.170Z,9.33
2018-04-07T17:06:47.349Z,8.50
2018-04-07T17:09:15.476Z,8.20
2018-04-07T17:11:42.407Z,7.23
2018-04-07T17:14:09.972Z,7.50
2018-04-07T17:16:38.626Z,7.30
2018-04-07T17:19:05.727Z,6.30
2018-04-07T17:21:32.934Z,6.90
2018-04-07T17:24:00.071Z,6.97
2018-04-07T17:26:27.238Z,6.37
2018-04-07T17:28:54.489Z,6.90
2018-04-07T17:31:34.555Z,6.70
2018-04-07T17:34:03.212Z,6.40
2018-04-07T17:36:30.588Z,6.63
2018-04-07T17:38:57.437Z,6.70
2018-04-07T17:41:25.613Z,6.97
2018-04-07T17:43:52.229Z,6.50
2018-04-07T17:46:20.832Z,7.27
2018-04-07T17:48:49.203Z,7.50
2018-04-07T17:51:16.704Z,7.50
2018-04-07T17:53:43.926Z,8.40
2018-04-07T17:56:10.572Z,7.10
2018-04-07T17:58:50.506Z,8.10
2018-04-07T18:01:18.550Z,7.30
2018-04-07T18:03:46.024Z,8.20
2018-04-07T18:06:12.753Z,7.53
2018-04-07T18:08:39.668Z,8.27
2018-04-07T18:11:06.264Z,8.43
2018-04-07T18:13:32.661Z,10.07
2018-04-07T18:15:59.527Z,11.17
2018-04-07T18:18:30.169Z,10.60
2018-04-07T18:20:58.627Z,15.90
2018-04-07T18:23:26.975Z,13.83
2018-04-07T18:25:54.184Z,11.40
2018-04-07T18:28:23.538Z,11.03
2018-04-07T18:30:51.305Z,11.87
2018-04-07T18:33:19.517Z,11.93
2018-04-07T18:35:47.765Z,11.20
2018-04-07T18:38:15.382Z,10.47
2018-04-07T18:40:44.211Z,11.70
2018-04-07T18:43:13.923Z,10.93
2018-04-07T18:45:41.397Z,12.27
2018-04-07T18:50:48.268Z,12.13
2018-04-07T18:53:17.671Z,12.90
2018-04-07T18:55:48.092Z,12.93
2018-04-07T18:58:18.502Z,11.00
2018-04-07T19:00:49.234Z,10.67
2018-04-07T19:03:21.312Z,11.57
2018-04-07T19:05:49.630Z,10.70
2018-04-07T19:08:17.922Z,10.97
2018-04-07T19:10:47.294Z,11.73
2018-04-07T19:13:15.715Z,9.80
2018-04-07T19:15:45.993Z,10.53
2018-04-07T19:18:13.067Z,9.97
2018-04-07T19:20:41.640Z,10.17
2018-04-07T19:23:09.815Z,10.03
2018-04-07T19:25:39.348Z,10.73
2018-04-07T19:28:09.469Z,10.10
2018-04-07T19:30:41.927Z,14.50
2018-04-07T19:33:10.249Z,12.23
2018-04-07T19:35:39.867Z,10.80
2018-04-07T19:38:07.455Z,11.10
2018-04-07T19:43:10.460Z,12.90
2018-04-07T19:45:39.701Z,10.30
2018-04-07T19:50:50.896Z,10.67
2018-04-07T19:53:20.174Z,11.30
2018-04-07T19:55:48.047Z,11.13
2018-04-07T19:58:16.492Z,10.37
2018-04-07T20:00:43.921Z,10.60
2018-04-07T20:03:13.118Z,10.40
2018-04-07T20:05:42.308Z,9.63
2018-04-07T20:08:12.484Z,11.57
2018-04-07T20:10:39.311Z,13.83
2018-04-07T20:13:09.088Z,10.93
2018-04-07T20:15:36.446Z,10.17
2018-04-07T20:18:06.920Z,9.20
2018-04-07T20:20:35.188Z,8.90
2018-04-07T20:23:02.067Z,8.30
2018-04-07T20:25:28.724Z,8.23
2018-04-07T20:28:01.602Z,7.30
2018-04-07T20:30:30.058Z,8.93
2018-04-07T20:32:58.558Z,8.17
2018-04-07T20:35:25.879Z,8.53
2018-04-07T20:37:54.053Z,8.27
2018-04-07T20:40:22.431Z,8.90
2018-04-07T20:42:49.168Z,7.97
2018-04-07T20:45:16.061Z,7.70
2018-04-07T20:47:42.647Z,8.90
2018-04-07T20:50:09.883Z,8.60
2018-04-07T20:52:38.036Z,6.57
2018-04-07T20:55:06.253Z,6.53
2018-04-07T20:57:32.782Z,6.80
2018-04-07T21:00:01.027Z,5.77
2018-04-07T21:02:29.362Z,8.23
2018-04-07T21:04:57.685Z,6.80
2018-04-07T21:07:24.252Z,6.60
2018-04-07T21:09:52.495Z,7.73
2018-04-07T21:14:52.243Z,7.27
2018-04-07T21:17:21.422Z,7.70
2018-04-07T21:19:48.497Z,7.23
2018-04-07T21:22:15.883Z,7.37
2018-04-07T21:24:44.002Z,6.97
2018-04-07T21:27:12.209Z,7.17
2018-04-07T21:29:40.583Z,7.07
2018-04-07T21:32:07.521Z,7.87
2018-04-07T21:34:35.621Z,6.33
2018-04-07T21:37:03.888Z,6.80
2018-04-07T21:39:32.276Z,6.60
2018-04-07T21:42:00.535Z,6.47
2018-04-07T21:44:27.817Z,6.83
2018-04-07T21:46:56.962Z,7.00
2018-04-07T21:49:25.167Z,6.53
2018-04-07T21:51:53.124Z,6.20
2018-04-07T21:54:21.779Z,6.87
2018-04-07T21:56:52.016Z,6.90
2018-04-07T21:59:20.471Z,7.73
2018-04-07T22:01:48.828Z,7.10
2018-04-07T22:04:16.189Z,7.30
2018-04-07T22:06:44.536Z,7.43
2018-04-07T22:09:13.788Z,7.67
2018-04-07T22:11:41.699Z,7.83
2018-04-07T22:14:09.976Z,8.50
2018-04-07T22:16:38.173Z,7.70
2018-04-07T22:19:07.961Z,7.83
2018-04-07T22:21:37.473Z,7.83
2018-04-07T22:24:07.565Z,7.40
2018-04-07T22:26:36.149Z,8.03
2018-04-07T22:29:11.066Z,8.47
2018-04-07T22:31:39.317Z,8.93
2018-04-07T22:34:06.186Z,8.23
2018-04-07T22:36:35.149Z,8.63
2018-04-07T22:39:03.657Z,8.60
2018-04-07T22:41:33.637Z,7.67
2018-04-07T22:44:01.992Z,8.10
2018-04-07T22:46:29.276Z,8.47
2018-04-07T22:48:55.887Z,7.90
2018-04-07T22:51:22.881Z,7.23
2018-04-07T22:53:50.043Z,7.63
2018-04-07T22:56:18.255Z,7.87
2018-04-07T22:58:46.407Z,7.90
2018-04-07T23:01:13.121Z,7.60
2018-04-07T23:03:39.458Z,7.80
2018-04-07T23:06:07.555Z,8.20
2018-04-07T23:08:35.780Z,8.10
2018-04-07T23:11:04.032Z,7.80
2018-04-07T23:13:32.188Z,7.93
2018-04-07T23:16:00.058Z,8.43
2018-04-07T23:18:28.238Z,7.13
2018-04-07T23:20:56.505Z,7.60
2018-04-07T23:23:24.884Z,7.50
2018-04-07T23:25:52.161Z,8.00
2018-04-07T23:28:18.708Z,8.80
2018-04-07T23:30:46.181Z,8.53
2018-04-07T23:33:12.772Z,8.23
2018-04-07T23:35:41.125Z,7.17
2018-04-07T23:38:07.776Z,8.33
2018-04-07T23:40:34.402Z,6.80
2018-04-07T23:43:02.563Z,7.63
2018-04-07T23:45:29.469Z,8.83
2018-04-07T23:47:55.956Z,8.40
2018-04-07T23:50:24.022Z,8.80
2018-04-07T23:52:50.848Z,7.67
2018-04-07T23:55:17.703Z,7.57
2018-04-07T23:57:45.990Z,7.60
